createdAt,value
2017-04-12T05:13:00.104Z,99.99
2017-04-12T05:14:08.694Z,99.99
2017-04-12T05:15:18.256Z,99.99
2017-04-12T05:16:27.516Z,99.99
2017-04-12T05:17:37.058Z,99.99
2017-04-12T05:18:47.393Z,99.99
2017-04-12T05:19:56.621Z,99.99
2017-04-12T05:21:05.211Z,99.99
2017-04-12T05:22:13.804Z,99.99
2017-04-12T05:23:22.710Z,99.99
2017-04-12T05:24:31.296Z,99.99
2017-04-12T05:25:40.527Z,99.99
2017-04-12T05:26:49.753Z,99.99
2017-04-12T05:27:58.907Z,99.99
2017-04-12T05:29:08.465Z,99.99
2017-04-12T05:30:17.684Z,99.99
2017-04-12T05:31:26.597Z,99.99
2017-04-12T05:32:35.501Z,99.99
2017-04-12T05:33:44.415Z,99.99
2017-04-12T05:34:53.361Z,99.99
2017-04-12T05:36:02.382Z,99.99
2017-04-12T05:37:11.058Z,99.99
2017-04-12T05:38:20.214Z,99.99
2017-04-12T05:39:29.126Z,99.99
2017-04-12T05:40:38.036Z,99.99
2017-04-12T05:41:46.948Z,99.99
2017-04-12T05:42:56.201Z,99.99
2017-04-12T05:44:04.798Z,99.99
2017-04-12T05:45:14.023Z,99.99
2017-04-12T05:46:23.253Z,99.99
2017-04-12T05:47:32.795Z,99.99
2017-04-12T05:48:41.973Z,99.99
2017-04-12T05:49:50.884Z,99.99
2017-04-12T05:50:59.470Z,99.99
2017-04-12T05:52:08.380Z,99.99
2017-04-12T05:53:17.302Z,99.99
2017-04-12T05:54:25.898Z,99.99
2017-04-12T05:55:35.135Z,99.99
2017-04-12T05:56:44.052Z,99.99
2017-04-12T05:57:53.299Z,99.99
2017-04-12T05:59:02.886Z,99.99
2017-04-12T06:00:12.111Z,99.99
2017-04-12T06:01:21.393Z,99.99
2017-04-12T06:02:30.098Z,99.99
2017-04-12T06:03:39.435Z,99.99
2017-04-12T06:04:48.341Z,99.99
2017-04-12T06:05:57.244Z,99.99
2017-04-12T06:07:05.835Z,99.99
2017-04-12T06:08:14.736Z,99.99
2017-04-12T06:09:23.974Z,99.99
2017-04-12T06:10:33.206Z,99.99
2017-04-12T06:11:42.434Z,99.99
2017-04-12T06:12:51.353Z,99.99
2017-04-12T06:14:00.591Z,99.99
2017-04-12T06:15:09.831Z,99.99
2017-04-12T06:16:19.059Z,99.99
2017-04-12T06:17:27.650Z,99.99
2017-04-12T06:18:36.561Z,99.99
2017-04-12T06:19:45.152Z,99.99
2017-04-12T06:20:54.053Z,99.99
2017-04-12T06:22:02.648Z,99.99
2017-04-12T06:23:11.562Z,99.99
2017-04-12T06:24:20.153Z,99.99
2017-04-12T06:25:29.316Z,99.99
2017-04-12T06:26:38.312Z,99.99
2017-04-12T06:27:47.228Z,99.99
2017-04-12T06:28:56.642Z,99.99
2017-04-12T06:30:05.242Z,99.99
2017-04-12T06:31:14.784Z,99.99
2017-04-12T06:32:23.701Z,99.99
2017-04-12T06:33:33.567Z,99.99
2017-04-12T06:34:42.591Z,99.99
2017-04-12T06:35:52.461Z,99.99
2017-04-12T06:37:01.907Z,99.99
2017-04-12T06:38:11.050Z,99.99
2017-04-12T06:39:20.376Z,99.99
2017-04-12T06:40:29.289Z,99.99
2017-04-12T06:41:38.444Z,99.99
2017-04-12T06:42:47.356Z,99.99
2017-04-12T06:43:55.946Z,99.99
2017-04-12T06:45:04.855Z,99.99
2017-04-12T06:46:14.088Z,99.99
2017-04-12T06:47:23.003Z,99.99
2017-04-12T06:48:31.917Z,99.99
2017-04-12T06:49:40.830Z,99.99
2017-04-12T06:50:49.739Z,99.99
2017-04-12T06:51:58.967Z,99.99
2017-04-12T06:53:07.894Z,99.99
2017-04-12T06:54:16.521Z,99.99
2017-04-12T06:55:25.345Z,99.99
2017-04-12T06:56:35.590Z,99.99
2017-04-12T06:57:44.682Z,99.99
2017-04-12T06:58:54.077Z,99.99
2017-04-12T07:00:03.301Z,99.99
2017-04-12T07:01:12.229Z,99.99
2017-04-12T07:02:20.815Z,99.99
2017-04-12T07:03:29.721Z,99.99
2017-04-12T07:04:38.633Z,99.99
2017-04-12T07:05:47.578Z,99.99
2017-04-12T07:06:56.646Z,99.99
2017-04-12T07:08:05.815Z,99.99
2017-04-12T07:09:14.415Z,99.99
2017-04-12T07:10:24.007Z,99.99
2017-04-12T07:11:32.635Z,99.99
2017-04-12T07:12:42.276Z,99.99
2017-04-12T07:13:51.332Z,99.99
2017-04-12T07:15:00.599Z,99.99
2017-04-12T07:16:10.159Z,99.99
2017-04-12T07:17:18.757Z,99.99
2017-04-12T07:18:27.989Z,99.99
2017-04-12T07:19:36.582Z,99.99
2017-04-12T07:20:46.139Z,99.99
2017-04-12T07:21:54.744Z,99.99
2017-04-12T07:23:03.662Z,99.99
2017-04-12T07:24:12.574Z,99.99
2017-04-12T07:25:21.525Z,99.99
2017-04-12T07:26:30.436Z,99.99
2017-04-12T07:27:39.673Z,99.99
2017-04-12T07:28:48.640Z,99.99
2017-04-12T07:29:58.190Z,99.99
2017-04-12T07:31:07.414Z,99.99
2017-04-12T07:32:16.653Z,99.99
2017-04-12T07:33:25.568Z,99.99
2017-04-12T07:34:34.483Z,99.99
2017-04-12T07:35:43.389Z,99.99
2017-04-12T07:36:52.615Z,99.99
2017-04-12T07:38:01.525Z,99.99
2017-04-12T07:39:10.143Z,99.99
2017-04-12T07:40:19.068Z,99.99
2017-04-12T07:41:27.977Z,99.99
2017-04-12T07:42:36.575Z,99.99
2017-04-12T07:43:45.801Z,99.99
2017-04-12T07:44:55.352Z,99.99
2017-04-12T07:46:04.266Z,99.99
2017-04-12T07:47:13.182Z,99.99
2017-04-12T07:48:22.096Z,99.99
2017-04-12T07:49:30.693Z,99.99
2017-04-12T07:50:40.301Z,99.99
2017-04-12T07:51:49.281Z,99.99
2017-04-12T07:52:58.550Z,99.99
2017-04-12T07:54:07.791Z,99.99
2017-04-12T07:55:16.824Z,99.99
2017-04-12T07:56:26.060Z,99.99
2017-04-12T07:57:38.415Z,99.99
2017-04-12T07:58:47.922Z,99.99
2017-04-12T07:59:56.837Z,99.99
2017-04-12T08:01:06.404Z,99.99
2017-04-12T08:02:15.051Z,99.99
2017-04-12T08:03:24.367Z,99.99
2017-04-12T08:04:33.568Z,99.99
2017-04-12T08:05:42.710Z,99.99
2017-04-12T08:06:51.939Z,99.99
2017-04-12T08:08:01.804Z,99.99
2017-04-12T08:09:11.023Z,99.99
2017-04-12T08:10:20.798Z,99.99
2017-04-12T08:11:29.714Z,99.99
2017-04-12T08:12:38.733Z,99.99
2017-04-12T08:13:48.444Z,99.99
2017-04-12T08:14:57.808Z,99.99
2017-04-12T08:16:07.371Z,99.99
2017-04-12T08:17:16.219Z,99.99
2017-04-12T08:18:26.673Z,99.99
2017-04-12T08:19:36.230Z,99.99
2017-04-12T08:20:45.777Z,99.99
2017-04-12T08:21:55.122Z,99.99
2017-04-12T08:23:04.036Z,99.99
2017-04-12T08:24:12.971Z,99.99
2017-04-12T08:25:21.889Z,99.99
2017-04-12T08:26:30.490Z,99.99
2017-04-12T08:27:39.728Z,99.99
2017-04-12T08:28:49.283Z,99.99
2017-04-12T08:29:58.523Z,99.99
2017-04-12T08:31:07.444Z,99.99
2017-04-12T08:32:16.685Z,99.99
2017-04-12T08:33:25.385Z,99.99
2017-04-12T08:34:34.511Z,99.99
2017-04-12T08:35:43.432Z,99.99
2017-04-12T08:36:52.349Z,99.99
2017-04-12T08:38:01.325Z,99.99
2017-04-12T08:39:10.366Z,99.99
2017-04-12T08:40:19.672Z,99.99
2017-04-12T08:41:28.326Z,99.99
2017-04-12T08:42:37.570Z,99.99
2017-04-12T08:43:46.816Z,99.99
2017-04-12T08:44:55.424Z,99.57
2017-04-12T08:46:04.658Z,98.71
2017-04-12T08:47:13.739Z,99.09
2017-04-12T08:48:22.658Z,97.47
2017-04-12T08:49:31.591Z,96.37
2017-04-12T08:50:40.814Z,95.41
2017-04-12T08:51:49.737Z,93.98
2017-04-12T08:52:58.848Z,94.36
2017-04-12T08:54:08.161Z,93.6
2017-04-12T08:55:17.389Z,93.4
2017-04-12T08:56:26.436Z,92.74
2017-04-12T08:57:35.987Z,91.97
2017-04-12T08:58:44.904Z,91.49
2017-04-12T08:59:53.822Z,91.2
2017-04-12T09:01:02.421Z,92.35
2017-04-12T09:02:11.334Z,92.54
2017-04-12T09:03:20.242Z,92.64
2017-04-12T09:04:28.935Z,92.74
2017-04-12T09:05:39.072Z,92.54
2017-04-12T09:06:48.108Z,90.44
2017-04-12T09:07:57.025Z,90.06
2017-04-12T09:09:05.657Z,89.48
2017-04-12T09:10:15.208Z,88.72
2017-04-12T09:11:24.469Z,88.67
2017-04-12T09:12:33.107Z,88.19
2017-04-12T09:13:42.346Z,87.62
2017-04-12T09:14:51.275Z,86.94
2017-04-12T09:16:00.195Z,87.14
2017-04-12T09:17:09.116Z,86.18
2017-04-12T09:18:17.732Z,86.47
2017-04-12T09:19:26.971Z,87.14
2017-04-12T09:20:36.210Z,86.94
2017-04-12T09:21:46.124Z,87.04
2017-04-12T09:22:55.041Z,87.04
2017-04-12T09:24:04.287Z,87.33
2017-04-12T09:25:13.536Z,87.43
2017-04-12T09:26:22.765Z,88
2017-04-12T09:27:31.701Z,87.62
2017-04-12T09:28:40.613Z,87.9
2017-04-12T09:29:49.226Z,86.47
2017-04-12T09:30:58.499Z,85.41
2017-04-12T09:32:07.740Z,85.51
2017-04-12T09:33:16.684Z,85.17
2017-04-12T09:34:25.614Z,84.41
2017-04-12T09:35:34.538Z,85.36
2017-04-12T09:36:43.829Z,84.79
2017-04-12T09:37:52.441Z,84.5
2017-04-12T09:39:01.355Z,84.12
2017-04-12T09:40:09.952Z,84.88
2017-04-12T09:41:19.040Z,85.27
2017-04-12T09:42:28.326Z,85.84
2017-04-12T09:43:37.274Z,85.08
2017-04-12T09:44:46.647Z,85.08
2017-04-12T09:45:55.577Z,85.65
2017-04-12T09:47:04.496Z,86.32
2017-04-12T09:48:13.413Z,85.36
2017-04-12T09:49:22.030Z,85.55
2017-04-12T09:50:30.949Z,85.27
2017-04-12T09:51:39.800Z,85.17
2017-04-12T09:52:48.398Z,84.88
2017-04-12T09:53:57.627Z,84.31
2017-04-12T09:55:06.231Z,85.46
2017-04-12T09:56:14.828Z,85.75
2017-04-12T09:57:24.065Z,86.22
2017-04-12T09:58:33.445Z,86.13
2017-04-12T09:59:42.624Z,85.27
2017-04-12T10:00:51.960Z,85.8
2017-04-12T10:02:01.519Z,86.32
2017-04-12T10:03:10.439Z,87.33
2017-04-12T10:04:19.042Z,87.43
2017-04-12T10:05:27.967Z,88
2017-04-12T10:06:36.908Z,87.33
2017-04-12T10:07:45.510Z,88.43
2017-04-12T10:08:54.431Z,89.43
2017-04-12T10:10:03.343Z,88.38
2017-04-12T10:11:11.962Z,87.95
2017-04-12T10:12:21.207Z,87.76
2017-04-12T10:13:30.461Z,86.13
2017-04-12T10:14:39.067Z,85.65
2017-04-12T10:15:47.670Z,85.08
2017-04-12T10:16:56.289Z,84.12
2017-04-12T10:18:04.893Z,84.41
2017-04-12T10:19:13.492Z,83.01
2017-04-12T10:20:22.717Z,82.15
2017-04-12T10:21:31.312Z,82.43
2017-04-12T10:22:40.248Z,82.82
2017-04-12T10:23:49.176Z,82.4
2017-04-12T10:24:57.783Z,82.59
2017-04-12T10:26:06.697Z,82.87
2017-04-12T10:27:15.616Z,83.36
2017-04-12T10:28:24.214Z,82.3
2017-04-12T10:29:33.520Z,81.92
2017-04-12T10:30:42.442Z,81.92
2017-04-12T10:31:51.035Z,83.06
2017-04-12T10:32:59.629Z,84.02
2017-04-12T10:34:09.179Z,84.27
2017-04-12T10:35:18.411Z,84.65
2017-04-12T10:36:27.323Z,84.75
2017-04-12T10:37:35.925Z,84.65
2017-04-12T10:38:44.524Z,85.22
2017-04-12T10:39:53.448Z,86.47
2017-04-12T10:41:02.999Z,86.76
2017-04-12T10:42:12.237Z,88.09
2017-04-12T10:43:21.463Z,88.76
2017-04-12T10:44:31.338Z,88.95
2017-04-12T10:45:39.934Z,89.43
2017-04-12T10:46:48.856Z,90.67
2017-04-12T10:47:57.782Z,88.95
2017-04-12T10:49:07.650Z,88.86
2017-04-12T10:50:16.552Z,90.2
2017-04-12T10:51:25.206Z,90.2
2017-04-12T10:52:35.645Z,91.44
2017-04-12T10:53:44.567Z,90.58
2017-04-12T10:54:53.810Z,91.63
2017-04-12T10:56:02.725Z,90.39
2017-04-12T10:57:11.975Z,90.39
2017-04-12T10:58:20.951Z,89.05
2017-04-12T10:59:30.236Z,89.24
2017-04-12T11:00:39.468Z,89.05
2017-04-12T11:01:48.380Z,88
2017-04-12T11:02:57.297Z,88.19
2017-04-12T11:04:05.894Z,88.95
2017-04-12T11:05:15.446Z,89.05
2017-04-12T11:06:25.316Z,88.67
2017-04-12T11:07:34.237Z,88.95
2017-04-12T11:08:42.831Z,88.76
2017-04-12T11:09:51.424Z,89.15
2017-04-12T11:11:00.011Z,88.29
2017-04-12T11:12:08.934Z,89.24
2017-04-12T11:13:18.157Z,89.43
2017-04-12T11:14:27.109Z,90.1
2017-04-12T11:15:36.036Z,89.05
2017-04-12T11:16:45.006Z,88.76
2017-04-12T11:17:54.349Z,88
2017-04-12T11:19:03.618Z,86.28
2017-04-12T11:20:12.538Z,86.47
2017-04-12T11:21:21.217Z,86.37
2017-04-12T11:22:30.154Z,87.43
2017-04-12T11:23:39.706Z,87.52
2017-04-12T11:24:48.767Z,87.23
2017-04-12T11:25:57.528Z,86.41
2017-04-12T11:27:06.810Z,86.13
2017-04-12T11:28:15.961Z,86.47
2017-04-12T11:29:25.799Z,86.18
2017-04-12T11:30:34.403Z,86.85
2017-04-12T11:31:43.400Z,87.62
2017-04-12T11:32:52.605Z,86.94
2017-04-12T11:34:01.515Z,87.23
2017-04-12T11:35:10.700Z,88
2017-04-12T11:36:19.937Z,88.48
2017-04-12T11:37:28.860Z,88.57
2017-04-12T11:38:38.446Z,87.33
2017-04-12T11:39:47.609Z,87.43
2017-04-12T11:40:56.206Z,88.19
2017-04-12T11:42:04.868Z,88.09
2017-04-12T11:43:14.115Z,88.57
2017-04-12T11:44:22.914Z,89.24
2017-04-12T11:45:31.992Z,89.05
2017-04-12T11:46:41.237Z,89.43
2017-04-12T11:47:50.498Z,88.76
2017-04-12T11:48:59.541Z,88.67
2017-04-12T11:50:08.577Z,88.48
2017-04-12T11:51:17.535Z,88.43
2017-04-12T11:52:27.113Z,88.91
2017-04-12T11:53:36.725Z,88.67
2017-04-12T11:54:45.838Z,88.34
2017-04-12T11:55:55.707Z,88.62
2017-04-12T11:57:05.450Z,88.29
2017-04-12T11:58:14.754Z,88.53
2017-04-12T11:59:24.077Z,89.15
2017-04-12T12:00:33.046Z,89.15
2017-04-12T12:01:42.276Z,88.76
2017-04-12T12:02:51.364Z,87.71
2017-04-12T12:04:00.403Z,87.81
2017-04-12T12:05:09.068Z,88.48
2017-04-12T12:06:18.714Z,88.19
2017-04-12T12:07:31.022Z,88.19
2017-04-12T12:08:40.309Z,88.09
2017-04-12T12:09:49.257Z,88.09
2017-04-12T12:10:58.559Z,86.94
2017-04-12T12:12:08.186Z,86.66
2017-04-12T12:13:17.154Z,87.04
2017-04-12T12:14:26.153Z,87.23
2017-04-12T12:15:35.122Z,86.08
2017-04-12T12:16:44.678Z,85.99
2017-04-12T12:17:53.645Z,87.09
2017-04-12T12:19:02.626Z,86.57
2017-04-12T12:20:11.569Z,87.09
2017-04-12T12:21:20.854Z,86.04
2017-04-12T12:22:29.775Z,87.95
2017-04-12T12:23:39.041Z,87.76
2017-04-12T12:24:48.006Z,88.72
2017-04-12T12:25:57.397Z,89.58
2017-04-12T12:27:06.463Z,89.67
2017-04-12T12:28:15.375Z,90.53
2017-04-12T12:29:24.610Z,91.02
2017-04-12T12:30:33.527Z,91.68
2017-04-12T12:31:42.776Z,92.35
2017-04-12T12:32:51.379Z,91.78
2017-04-12T12:34:00.301Z,91.59
2017-04-12T12:35:09.221Z,91.11
2017-04-12T12:36:18.133Z,91.97
2017-04-12T12:37:27.391Z,92.74
2017-04-12T12:38:35.999Z,91.88
2017-04-12T12:39:45.238Z,92.25
2017-04-12T12:40:54.155Z,93.12
2017-04-12T12:42:03.394Z,91.88
2017-04-12T12:43:12.245Z,92.07
2017-04-12T12:44:20.842Z,93.6
2017-04-12T12:45:30.079Z,93.6
2017-04-12T12:46:39.304Z,92.83
2017-04-12T12:47:48.153Z,93.02
2017-04-12T12:48:57.382Z,94.36
2017-04-12T12:50:06.615Z,95.12
2017-04-12T12:51:15.211Z,94.93
2017-04-12T12:52:24.130Z,94.36
2017-04-12T12:53:33.696Z,94.84
2017-04-12T12:54:43.257Z,94.46
2017-04-12T12:55:52.191Z,94.93
2017-04-12T12:57:01.895Z,94.17
2017-04-12T12:58:10.869Z,94.36
2017-04-12T12:59:20.111Z,92.07
2017-04-12T13:00:29.051Z,91.78
2017-04-12T13:01:37.990Z,92.16
2017-04-12T13:02:46.916Z,91.3
2017-04-12T13:03:56.151Z,90.53
2017-04-12T13:05:05.151Z,89.96
2017-04-12T13:06:14.073Z,91.2
2017-04-12T13:07:23.000Z,91.97
2017-04-12T13:08:31.853Z,91.88
2017-04-12T13:09:40.454Z,91.11
2017-04-12T13:10:49.056Z,91.02
2017-04-12T13:11:57.974Z,92.35
2017-04-12T13:13:06.889Z,90.92
2017-04-12T13:14:15.803Z,91.68
2017-04-12T13:15:24.398Z,91.11
2017-04-12T13:16:33.316Z,90.92
2017-04-12T13:17:41.924Z,92.45
2017-04-12T13:18:50.835Z,91.97
2017-04-12T13:19:59.749Z,92.54
2017-04-12T13:21:08.349Z,92.35
2017-04-12T13:22:17.588Z,93.02
2017-04-12T13:23:26.518Z,92.83
2017-04-12T13:24:35.773Z,92.16
2017-04-12T13:25:45.023Z,92.54
2017-04-12T13:26:53.933Z,91.49
2017-04-12T13:28:03.163Z,90.16
2017-04-12T13:29:12.330Z,90.06
2017-04-12T13:30:21.255Z,89.29
2017-04-12T13:31:30.173Z,89.48
2017-04-12T13:32:39.088Z,89.77
2017-04-12T13:33:48.007Z,89.39
2017-04-12T13:34:56.610Z,90.53
2017-04-12T13:36:05.538Z,89.87
2017-04-12T13:37:14.781Z,90.44
2017-04-12T13:38:23.390Z,89.77
2017-04-12T13:39:33.034Z,90.06
2017-04-12T13:40:42.267Z,90.16
2017-04-12T13:41:51.179Z,88.62
2017-04-12T13:43:00.404Z,89.01
2017-04-12T13:44:09.313Z,87.19
2017-04-12T13:45:17.907Z,87.57
2017-04-12T13:46:26.824Z,86.14
2017-04-12T13:47:35.565Z,86.08
2017-04-12T13:48:44.481Z,86.28
2017-04-12T13:49:53.397Z,85.61
2017-04-12T13:51:02.625Z,85.13
2017-04-12T13:52:11.863Z,86.08
2017-04-12T13:53:21.439Z,85.41
2017-04-12T13:54:30.353Z,86.28
2017-04-12T13:55:39.260Z,85.75
2017-04-12T13:56:47.882Z,85.94
2017-04-12T13:57:56.477Z,86.28
2017-04-12T13:59:05.388Z,86.43
2017-04-12T14:00:14.625Z,87.19
2017-04-12T14:01:23.536Z,86.8
2017-04-12T14:02:33.009Z,86.43
2017-04-12T14:03:41.987Z,86.8
2017-04-12T14:04:51.531Z,87.19
2017-04-12T14:06:01.052Z,86.14
2017-04-12T14:07:09.962Z,85.8
2017-04-12T14:08:18.877Z,85.03
2017-04-12T14:09:27.809Z,85.51
2017-04-12T14:10:36.395Z,84.65
2017-04-12T14:11:44.994Z,84.55
2017-04-12T14:12:53.914Z,84.46
2017-04-12T14:14:03.138Z,84.84
2017-04-12T14:15:12.054Z,84.55
2017-04-12T14:16:21.284Z,84.46
2017-04-12T14:17:29.881Z,84.75
2017-04-12T14:18:38.802Z,84.08
2017-04-12T14:19:47.712Z,85.03
2017-04-12T14:20:56.310Z,85.03
2017-04-12T14:22:04.902Z,85.51
2017-04-12T14:23:13.852Z,85.32
2017-04-12T14:24:22.450Z,85.41
2017-04-12T14:25:31.681Z,85.32
2017-04-12T14:26:41.174Z,85.51
2017-04-12T14:27:49.781Z,84.27
2017-04-12T14:28:58.373Z,84.46
2017-04-12T14:30:07.604Z,83.16
2017-04-12T14:31:17.165Z,84.02
2017-04-12T14:32:26.723Z,84.12
2017-04-12T14:33:35.644Z,84.59
2017-04-12T14:34:45.202Z,84.12
2017-04-12T14:35:54.122Z,84.88
2017-04-12T14:37:03.376Z,84.79
2017-04-12T14:38:12.294Z,84.88
2017-04-12T14:39:20.896Z,84.12
2017-04-12T14:40:30.136Z,83.73
2017-04-12T14:41:39.079Z,83.83
2017-04-12T14:42:48.007Z,83.16
2017-04-12T14:43:57.263Z,82.97
2017-04-12T14:45:05.877Z,83.73
2017-04-12T14:46:14.807Z,84.12
2017-04-12T14:47:23.747Z,84.69
2017-04-12T14:48:33.245Z,83.89
2017-04-12T14:49:42.468Z,83.79
2017-04-12T14:50:51.092Z,84.65
2017-04-12T14:52:00.018Z,84.17
2017-04-12T14:53:08.933Z,84.84
2017-04-12T14:54:17.841Z,84.84
2017-04-12T14:55:26.750Z,84.36
2017-04-12T14:56:36.303Z,84.08
2017-04-12T14:57:45.579Z,85.03
2017-04-12T14:58:54.178Z,84.84
2017-04-12T15:00:03.097Z,85.03
2017-04-12T15:01:11.691Z,85.51
2017-04-12T15:02:20.289Z,85.99
2017-04-12T15:03:29.394Z,85.61
2017-04-12T15:04:38.419Z,85.71
2017-04-12T15:05:47.528Z,87.23
2017-04-12T15:06:56.129Z,87.62
2017-04-12T15:08:05.365Z,85.71
2017-04-12T15:09:14.350Z,85.13
2017-04-12T15:10:23.594Z,84.61
2017-04-12T15:11:32.827Z,84.7
2017-04-12T15:12:41.751Z,85.28
2017-04-12T15:13:51.104Z,85.94
2017-04-12T15:14:59.703Z,86.9
2017-04-12T15:16:08.950Z,86.14
2017-04-12T15:17:17.861Z,89.1
2017-04-12T15:18:27.461Z,91.88
2017-04-12T15:19:36.378Z,94.17
2017-04-12T15:20:46.115Z,95.12
2017-04-12T15:21:55.022Z,93.6
2017-04-12T15:23:04.263Z,93.69
2017-04-12T15:24:13.826Z,93.21
2017-04-12T15:25:22.420Z,93.55
2017-04-12T15:26:31.653Z,93.55
2017-04-12T15:27:40.885Z,95.36
2017-04-12T15:28:49.540Z,96.89
2017-04-12T15:29:58.795Z,98.52
2017-04-12T15:31:07.994Z,97.75
2017-04-12T15:32:16.595Z,96.61
2017-04-12T15:33:25.251Z,96.84
2017-04-12T15:34:34.216Z,96.94
2017-04-12T15:35:43.462Z,97.99
2017-04-12T15:36:52.396Z,98.66
2017-04-12T15:38:01.368Z,99.43
2017-04-12T15:39:09.964Z,99.62
2017-04-12T15:40:18.892Z,99.99
2017-04-12T15:41:27.746Z,99.62
2017-04-12T15:42:36.363Z,99.52
2017-04-12T15:43:45.340Z,99.33
2017-04-12T15:44:54.300Z,99.99
2017-04-12T15:46:03.211Z,99.14
2017-04-12T15:47:12.165Z,97.89
2017-04-12T15:48:21.187Z,98.85
2017-04-12T15:49:30.597Z,99.14
2017-04-12T15:50:39.527Z,98.18
2017-04-12T15:51:49.010Z,99.66
2017-04-12T15:52:57.662Z,99.99
2017-04-12T15:54:07.214Z,99.99
2017-04-12T15:55:16.621Z,99.99
2017-04-12T15:56:25.309Z,99.99
2017-04-12T15:57:34.578Z,99.99
2017-04-12T15:58:43.844Z,99.99
2017-04-12T15:59:52.792Z,99.99
2017-04-12T16:01:02.355Z,99.99
2017-04-12T16:02:11.277Z,99.99
2017-04-12T16:03:20.546Z,99.99
2017-04-12T16:04:29.468Z,99.99
2017-04-12T16:05:38.377Z,99.99
2017-04-12T16:06:47.308Z,99.99
2017-04-12T16:07:56.537Z,99.99
2017-04-12T16:09:05.130Z,99.99
2017-04-12T16:10:14.055Z,99.99
2017-04-12T16:11:23.297Z,99.99
2017-04-12T16:12:32.253Z,99.99
2017-04-12T16:13:41.206Z,99.99
2017-04-12T16:14:50.760Z,99.99
2017-04-12T16:15:59.681Z,99.99
2017-04-12T16:17:08.607Z,99.99
2017-04-12T16:18:17.521Z,99.99
2017-04-12T16:19:26.761Z,99.99
2017-04-12T16:20:35.680Z,99.99
2017-04-12T16:21:44.613Z,99.99
2017-04-12T16:22:53.689Z,99.99
2017-04-12T16:24:02.923Z,99.99
2017-04-12T16:25:12.163Z,99.99
2017-04-12T16:26:20.756Z,99.99
2017-04-12T16:27:29.677Z,99.99
2017-04-12T16:28:38.594Z,99.99
2017-04-12T16:29:48.134Z,99.99
2017-04-12T16:30:57.081Z,99.99
2017-04-12T16:32:06.322Z,99.99
2017-04-12T16:33:15.350Z,99.99
2017-04-12T16:34:24.594Z,99.99
2017-04-12T16:35:33.833Z,99.99
2017-04-12T16:36:43.064Z,99.99
2017-04-12T16:37:51.657Z,99.99
2017-04-12T16:39:00.331Z,99.99
2017-04-12T16:40:08.935Z,99.99
2017-04-12T16:41:17.870Z,99.99
2017-04-12T16:42:26.482Z,99.99
2017-04-12T16:43:35.388Z,99.99
2017-04-12T16:44:44.316Z,99.99
2017-04-12T16:45:53.665Z,99.99
2017-04-12T16:47:03.293Z,99.99
2017-04-12T16:48:11.968Z,99.99
2017-04-12T16:49:21.310Z,99.99
2017-04-12T16:50:30.419Z,99.99
2017-04-12T16:51:39.071Z,99.99
2017-04-12T16:52:47.982Z,99.99
2017-04-12T16:53:57.268Z,99.99
2017-04-12T16:55:06.212Z,99.99
2017-04-12T16:56:14.853Z,99.99
2017-04-12T16:57:23.771Z,99.99
2017-04-12T16:58:32.714Z,99.99
2017-04-12T16:59:42.283Z,99.99
2017-04-12T17:00:50.885Z,99.99
2017-04-12T17:01:59.801Z,99.99
2017-04-12T17:03:08.730Z,99.99
2017-04-12T17:04:17.688Z,99.99
2017-04-12T17:05:27.022Z,99.99
2017-04-12T17:06:36.331Z,99.99
2017-04-12T17:07:44.944Z,99.99
2017-04-12T17:08:53.945Z,99.99
2017-04-12T17:10:03.215Z,99.99
2017-04-12T17:11:12.510Z,99.99
2017-04-12T17:12:21.121Z,99.99
2017-04-12T17:13:29.833Z,99.99
2017-04-12T17:14:38.743Z,99.99
2017-04-12T17:15:47.658Z,99.99
2017-04-12T17:16:57.246Z,99.99
2017-04-12T17:18:06.204Z,99.99
2017-04-12T17:19:15.128Z,99.99
2017-04-12T17:20:24.575Z,99.99
2017-04-12T17:21:33.973Z,99.99
2017-04-12T17:22:42.897Z,99.99
2017-04-12T17:23:52.134Z,99.99
2017-04-12T17:25:01.059Z,99.99
2017-04-12T17:26:10.648Z,99.99
2017-04-12T17:27:20.074Z,99.99
2017-04-12T17:28:30.224Z,99.99
2017-04-12T17:29:38.879Z,99.99
2017-04-12T17:30:48.989Z,99.99
2017-04-12T17:31:58.671Z,99.99
2017-04-12T17:33:07.500Z,99.99
2017-04-12T17:34:16.946Z,99.99
2017-04-12T17:35:25.597Z,99.99
2017-04-12T17:36:34.630Z,99.99
2017-04-12T17:37:43.921Z,99.99
2017-04-12T17:38:52.531Z,99.99
2017-04-12T17:40:01.756Z,99.99
2017-04-12T17:41:10.795Z,99.99
2017-04-12T17:42:19.387Z,99.99
2017-04-12T17:43:28.619Z,99.99
2017-04-12T17:44:37.332Z,99.99
2017-04-12T17:45:45.972Z,99.99
2017-04-12T17:46:54.570Z,99.99
2017-04-12T17:48:03.641Z,99.99
2017-04-12T17:49:12.714Z,99.99
2017-04-12T17:50:21.480Z,99.99
2017-04-12T17:51:30.479Z,99.99
2017-04-12T17:52:39.486Z,99.99
2017-04-12T17:53:48.912Z,99.99
2017-04-12T17:54:57.573Z,99.99
2017-04-12T17:56:06.258Z,99.99
2017-04-12T17:57:15.492Z,99.99
2017-04-12T17:58:24.458Z,99.99
2017-04-12T17:59:33.522Z,99.99
2017-04-12T18:00:42.484Z,99.99
2017-04-12T18:01:51.919Z,99.99
2017-04-12T18:03:01.213Z,99.99
2017-04-12T18:04:10.191Z,99.99
2017-04-12T18:05:19.166Z,99.99
2017-04-12T18:06:28.137Z,99.99
2017-04-12T18:07:36.905Z,99.99
2017-04-12T18:08:45.980Z,99.99
2017-04-12T18:09:54.997Z,99.99
2017-04-12T18:11:04.199Z,99.99
2017-04-12T18:12:13.320Z,99.99
2017-04-12T18:13:22.643Z,99.99
2017-04-12T18:14:31.605Z,99.99
2017-04-12T18:15:40.934Z,99.99
2017-04-12T18:16:49.709Z,99.99
2017-04-12T18:17:59.322Z,99.99
2017-04-12T18:19:08.398Z,99.99
2017-04-12T18:20:17.500Z,99.99
2017-04-12T18:21:26.569Z,99.99
2017-04-12T18:22:35.327Z,99.99
2017-04-12T18:23:44.043Z,99.99
2017-04-12T18:24:53.378Z,99.99
2017-04-12T18:26:02.692Z,99.99
2017-04-12T18:27:12.086Z,99.99
2017-04-12T18:28:21.117Z,99.99
2017-04-12T18:29:30.774Z,99.99
2017-04-12T18:30:39.670Z,99.99
2017-04-12T18:31:49.487Z,99.99
2017-04-12T18:32:58.276Z,99.99
2017-04-12T18:34:06.931Z,99.99
2017-04-12T18:35:16.861Z,99.99
2017-04-12T18:36:25.702Z,99.99
2017-04-12T18:37:35.638Z,99.99
2017-04-12T18:38:44.799Z,99.99
2017-04-12T18:39:54.351Z,99.99
2017-04-12T18:41:03.266Z,99.99
2017-04-12T18:42:12.185Z,99.99
2017-04-12T18:43:21.728Z,99.99
2017-04-12T18:44:30.966Z,99.99
2017-04-12T18:45:39.725Z,99.99
2017-04-12T18:46:48.954Z,99.99
2017-04-12T18:47:57.874Z,99.99
2017-04-12T18:49:07.107Z,99.99
2017-04-12T18:50:16.027Z,99.99
2017-04-12T18:51:24.936Z,99.99
2017-04-12T18:52:33.851Z,99.99
2017-04-12T18:53:42.771Z,99.99
2017-04-12T18:54:52.260Z,99.99
2017-04-12T18:56:01.175Z,99.99
2017-04-12T18:57:09.778Z,99.99
2017-04-12T18:58:18.383Z,99.99
2017-04-12T18:59:27.295Z,99.99
2017-04-12T19:00:36.211Z,99.99
2017-04-12T19:01:45.495Z,99.99
2017-04-12T19:02:54.413Z,99.99
2017-04-12T19:04:03.680Z,99.99
2017-04-12T19:05:12.601Z,99.99
2017-04-12T19:06:21.868Z,99.99
2017-04-12T19:07:30.792Z,99.99
2017-04-12T19:08:40.022Z,99.99
2017-04-12T19:09:49.249Z,99.99
2017-04-12T19:10:58.802Z,99.99
2017-04-12T19:12:08.131Z,99.99
2017-04-12T19:13:17.185Z,99.99
2017-04-12T19:14:26.355Z,99.99
2017-04-12T19:15:35.021Z,99.99
2017-04-12T19:16:43.976Z,99.99
2017-04-12T19:17:52.899Z,99.99
2017-04-12T19:19:01.850Z,99.99
2017-04-12T19:20:11.084Z,99.99
2017-04-12T19:21:19.672Z,99.99
2017-04-12T19:22:29.347Z,99.99
2017-04-12T19:23:38.282Z,99.99
2017-04-12T19:24:46.882Z,99.99
2017-04-12T19:25:55.496Z,99.99
2017-04-12T19:27:04.408Z,99.99
2017-04-12T19:28:13.653Z,99.99
2017-04-12T19:29:23.202Z,99.99
2017-04-12T19:30:31.797Z,99.99
2017-04-12T19:31:40.705Z,99.99
2017-04-12T19:32:49.672Z,99.99
2017-04-12T19:33:58.914Z,99.99
2017-04-12T19:35:07.843Z,99.99
2017-04-12T19:36:16.757Z,99.99
2017-04-12T19:37:25.398Z,99.99
2017-04-12T19:38:34.649Z,99.99
2017-04-12T19:39:43.559Z,99.99
2017-04-12T19:40:52.481Z,99.99
2017-04-12T19:42:01.075Z,99.99
2017-04-12T19:43:10.300Z,99.99
2017-04-12T19:44:19.209Z,99.99
2017-04-12T19:45:28.756Z,99.99
2017-04-12T19:46:38.645Z,99.99
2017-04-12T19:47:47.615Z,99.99
2017-04-12T19:48:56.211Z,99.99
2017-04-12T19:50:05.122Z,99.99
2017-04-12T19:51:14.044Z,99.99
2017-04-12T19:52:22.959Z,99.99
2017-04-12T19:53:31.575Z,99.99
2017-04-12T19:54:40.805Z,99.99
2017-04-12T19:55:49.706Z,99.99
2017-04-12T19:56:58.622Z,99.99
2017-04-12T19:58:07.531Z,99.99
2017-04-12T19:59:16.445Z,99.99
2017-04-12T20:00:25.041Z,99.99
2017-04-12T20:01:33.635Z,99.99
2017-04-12T20:02:42.874Z,99.99